sensor_id;sensor_type;location;lat;lon;timestamp;pressure;altitude;pressure_sealevel;temperature
61977;BMP280;45905;50.570;10.428;2022-08-25T00:00:12;98249.44;;;20.22
61977;BMP280;45905;50.570;10.428;2022-08-25T00:02:39;98244.88;;;20.17
61977;BMP280;45905;50.570;10.428;2022-08-25T00:05:27;98240.16;;;20.14
61977;BMP280;45905;50.570;10.428;2022-08-25T00:07:55;98240.00;;;20.09
61977;BMP280;45905;50.570;10.428;2022-08-25T00:10:23;98238.00;;;20.05
61977;BMP280;45905;50.570;10.428;2022-08-25T00:12:51;98236.66;;;20.03
61977;BMP280;45905;50.570;10.428;2022-08-25T00:15:18;98233.91;;;19.98
61977;BMP280;45905;50.570;10.428;2022-08-25T00:17:45;98238.50;;;19.96
61977;BMP280;45905;50.570;10.428;2022-08-25T00:20:12;98232.34;;;19.90
61977;BMP280;45905;50.570;10.428;2022-08-25T00:22:40;98242.06;;;19.88
61977;BMP280;45905;50.570;10.428;2022-08-25T00:25:08;98235.75;;;19.85
61977;BMP280;45905;50.570;10.428;2022-08-25T00:27:35;98237.94;;;19.81
61977;BMP280;45905;50.570;10.428;2022-08-25T00:30:04;98229.06;;;19.77
61977;BMP280;45905;50.570;10.428;2022-08-25T00:32:32;98228.69;;;19.74
61977;BMP280;45905;50.570;10.428;2022-08-25T00:34:59;98235.78;;;19.72
61977;BMP280;45905;50.570;10.428;2022-08-25T00:37:26;98230.28;;;19.68
61977;BMP280;45905;50.570;10.428;2022-08-25T00:39:54;98222.00;;;19.67
61977;BMP280;45905;50.570;10.428;2022-08-25T00:42:25;98223.97;;;19.65
61977;BMP280;45905;50.570;10.428;2022-08-25T00:44:52;98225.16;;;19.62
61977;BMP280;45905;50.570;10.428;2022-08-25T00:47:20;98223.22;;;19.58
61977;BMP280;45905;50.570;10.428;2022-08-25T00:49:54;98224.34;;;19.55
61977;BMP280;45905;50.570;10.428;2022-08-25T00:52:35;98236.84;;;19.52
61977;BMP280;45905;50.570;10.428;2022-08-25T00:55:17;98226.38;;;19.47
61977;BMP280;45905;50.570;10.428;2022-08-25T00:57:55;98239.41;;;19.46
61977;BMP280;45905;50.570;10.428;2022-08-25T01:00:31;98235.47;;;19.43
61977;BMP280;45905;50.570;10.428;2022-08-25T01:02:59;98239.44;;;19.39
61977;BMP280;45905;50.570;10.428;2022-08-25T01:05:27;98229.56;;;19.36
61977;BMP280;45905;50.570;10.428;2022-08-25T01:07:57;98224.84;;;19.33
61977;BMP280;45905;50.570;10.428;2022-08-25T01:10:27;98237.09;;;19.31
61977;BMP280;45905;50.570;10.428;2022-08-25T01:13:03;98239.25;;;19.28
61977;BMP280;45905;50.570;10.428;2022-08-25T01:15:36;98231.97;;;19.25
61977;BMP280;45905;50.570;10.428;2022-08-25T01:18:03;98228.81;;;19.23
61977;BMP280;45905;50.570;10.428;2022-08-25T01:20:31;98228.41;;;19.20
61977;BMP280;45905;50.570;10.428;2022-08-25T01:23:00;98230.38;;;19.18
61977;BMP280;45905;50.570;10.428;2022-08-25T01:26:03;98222.50;;;19.13
61977;BMP280;45905;50.570;10.428;2022-08-25T01:28:31;98219.31;;;19.11
61977;BMP280;45905;50.570;10.428;2022-08-25T01:30:59;98222.09;;;19.10
61977;BMP280;45905;50.570;10.428;2022-08-25T01:33:26;98213.41;;;19.04
61977;BMP280;45905;50.570;10.428;2022-08-25T01:35:53;98222.13;;;19.03
61977;BMP280;45905;50.570;10.428;2022-08-25T01:38:22;98223.28;;;19.01
61977;BMP280;45905;50.570;10.428;2022-08-25T01:40:49;98225.28;;;18.99
61977;BMP280;45905;50.570;10.428;2022-08-25T01:43:36;98209.47;;;18.95
61977;BMP280;45905;50.570;10.428;2022-08-25T01:46:04;98219.16;;;18.93
61977;BMP280;45905;50.570;10.428;2022-08-25T01:48:31;98211.09;;;18.90
61977;BMP280;45905;50.570;10.428;2022-08-25T01:50:58;98203.97;;;18.86
61977;BMP280;45905;50.570;10.428;2022-08-25T01:53:30;98211.06;;;18.84
61977;BMP280;45905;50.570;10.428;2022-08-25T01:56:09;98212.47;;;18.80
61977;BMP280;45905;50.570;10.428;2022-08-25T01:58:42;98202.59;;;18.77
61977;BMP280;45905;50.570;10.428;2022-08-25T02:01:18;98206.31;;;18.74
61977;BMP280;45905;50.570;10.428;2022-08-25T02:03:50;98206.56;;;18.73
61977;BMP280;45905;50.570;10.428;2022-08-25T02:06:31;98201.97;;;18.69
61977;BMP280;45905;50.570;10.428;2022-08-25T02:09:12;98212.63;;;18.66
61977;BMP280;45905;50.570;10.428;2022-08-25T02:11:43;98206.13;;;18.63
61977;BMP280;45905;50.570;10.428;2022-08-25T02:14:14;98211.63;;;18.60
61977;BMP280;45905;50.570;10.428;2022-08-25T02:16:46;98212.03;;;18.57
61977;BMP280;45905;50.570;10.428;2022-08-25T02:19:15;98209.88;;;18.54
61977;BMP280;45905;50.570;10.428;2022-08-25T02:21:43;98211.03;;;18.52
61977;BMP280;45905;50.570;10.428;2022-08-25T02:24:11;98201.97;;;18.50
61977;BMP280;45905;50.570;10.428;2022-08-25T02:26:40;98206.47;;;18.48
61977;BMP280;45905;50.570;10.428;2022-08-25T02:29:08;98201.78;;;18.45
61977;BMP280;45905;50.570;10.428;2022-08-25T02:31:36;98202.16;;;18.42
61977;BMP280;45905;50.570;10.428;2022-08-25T02:34:06;98192.88;;;18.41
61977;BMP280;45905;50.570;10.428;2022-08-25T02:36:34;98200.19;;;18.37
61977;BMP280;45905;50.570;10.428;2022-08-25T02:39:05;98203.94;;;18.35
61977;BMP280;45905;50.570;10.428;2022-08-25T02:41:32;98204.91;;;18.34
61977;BMP280;45905;50.570;10.428;2022-08-25T02:44:03;98208.84;;;18.30
61977;BMP280;45905;50.570;10.428;2022-08-25T02:46:31;98201.38;;;18.29
61977;BMP280;45905;50.570;10.428;2022-08-25T02:48:58;98204.13;;;18.27
61977;BMP280;45905;50.570;10.428;2022-08-25T02:51:27;98202.72;;;18.25
61977;BMP280;45905;50.570;10.428;2022-08-25T02:53:58;98203.91;;;18.22
61977;BMP280;45905;50.570;10.428;2022-08-25T02:56:28;98199.19;;;18.19
61977;BMP280;45905;50.570;10.428;2022-08-25T02:58:56;98199.38;;;18.18
61977;BMP280;45905;50.570;10.428;2022-08-25T03:01:23;98197.00;;;18.16
61977;BMP280;45905;50.570;10.428;2022-08-25T03:03:55;98195.78;;;18.13
61977;BMP280;45905;50.570;10.428;2022-08-25T03:06:23;98203.47;;;18.13
61977;BMP280;45905;50.570;10.428;2022-08-25T03:08:51;98198.75;;;18.10
61977;BMP280;45905;50.570;10.428;2022-08-25T03:11:20;98197.38;;;18.07
61977;BMP280;45905;50.570;10.428;2022-08-25T03:13:48;98200.31;;;18.04
61977;BMP280;45905;50.570;10.428;2022-08-25T03:16:18;98201.50;;;18.02
61977;BMP280;45905;50.570;10.428;2022-08-25T03:18:47;98199.13;;;18.00
61977;BMP280;45905;50.570;10.428;2022-08-25T03:21:15;98193.59;;;17.97
61977;BMP280;45905;50.570;10.428;2022-08-25T03:23:44;98192.97;;;17.95
61977;BMP280;45905;50.570;10.428;2022-08-25T03:26:12;98194.00;;;17.94
61977;BMP280;45905;50.570;10.428;2022-08-25T03:28:59;98195.97;;;17.92
61977;BMP280;45905;50.570;10.428;2022-08-25T03:31:27;98192.97;;;17.89
61977;BMP280;45905;50.570;10.428;2022-08-25T03:33:54;98202.63;;;17.87
61977;BMP280;45905;50.570;10.428;2022-08-25T03:36:22;98210.53;;;17.85
61977;BMP280;45905;50.570;10.428;2022-08-25T03:38:51;98200.63;;;17.82
61977;BMP280;45905;50.570;10.428;2022-08-25T03:41:24;98204.16;;;17.81
61977;BMP280;45905;50.570;10.428;2022-08-25T03:43:55;98190.94;;;17.78
61977;BMP280;45905;50.570;10.428;2022-08-25T03:46:26;98191.16;;;17.76
61977;BMP280;45905;50.570;10.428;2022-08-25T03:48:55;98195.66;;;17.75
61977;BMP280;45905;50.570;10.428;2022-08-25T03:51:26;98192.31;;;17.74
61977;BMP280;45905;50.570;10.428;2022-08-25T03:53:54;98191.91;;;17.71
61977;BMP280;45905;50.570;10.428;2022-08-25T03:56:22;98193.84;;;17.69
61977;BMP280;45905;50.570;10.428;2022-08-25T03:58:50;98189.75;;;17.68
61977;BMP280;45905;50.570;10.428;2022-08-25T04:01:17;98192.69;;;17.65
61977;BMP280;45905;50.570;10.428;2022-08-25T04:03:46;98200.97;;;17.67
61977;BMP280;45905;50.570;10.428;2022-08-25T04:06:15;98195.41;;;17.63
61977;BMP280;45905;50.570;10.428;2022-08-25T04:08:43;98194.63;;;17.63
61977;BMP280;45905;50.570;10.428;2022-08-25T04:11:17;98186.53;;;17.59
61977;BMP280;45905;50.570;10.428;2022-08-25T04:13:47;98186.53;;;17.59
61977;BMP280;45905;50.570;10.428;2022-08-25T04:16:18;98179.84;;;17.58
61977;BMP280;45905;50.570;10.428;2022-08-25T04:18:47;98180.03;;;17.57
61977;BMP280;45905;50.570;10.428;2022-08-25T04:21:16;98175.28;;;17.54
61977;BMP280;45905;50.570;10.428;2022-08-25T04:23:45;98176.25;;;17.53
61977;BMP280;45905;50.570;10.428;2022-08-25T04:26:29;98179.81;;;17.52
61977;BMP280;45905;50.570;10.428;2022-08-25T04:28:59;98179.22;;;17.50
61977;BMP280;45905;50.570;10.428;2022-08-25T04:31:28;98180.38;;;17.48
61977;BMP280;45905;50.570;10.428;2022-08-25T04:33:55;98179.59;;;17.47
61977;BMP280;45905;50.570;10.428;2022-08-25T04:36:23;98180.75;;;17.45
61977;BMP280;45905;50.570;10.428;2022-08-25T04:38:50;98177.22;;;17.46
61977;BMP280;45905;50.570;10.428;2022-08-25T04:41:22;98182.53;;;17.44
61977;BMP280;45905;50.570;10.428;2022-08-25T04:43:51;98187.66;;;17.44
61977;BMP280;45905;50.570;10.428;2022-08-25T04:46:22;98182.72;;;17.43
61977;BMP280;45905;50.570;10.428;2022-08-25T04:48:53;98192.97;;;17.43
61977;BMP280;45905;50.570;10.428;2022-08-25T04:51:31;98191.41;;;17.42
61977;BMP280;45905;50.570;10.428;2022-08-25T04:54:01;98185.50;;;17.41
61977;BMP280;45905;50.570;10.428;2022-08-25T04:56:28;98188.84;;;17.42
61977;BMP280;45905;50.570;10.428;2022-08-25T04:58:56;98183.13;;;17.40
61977;BMP280;45905;50.570;10.428;2022-08-25T05:01:24;98189.03;;;17.40
61977;BMP280;45905;50.570;10.428;2022-08-25T05:03:58;98189.03;;;17.40
61977;BMP280;45905;50.570;10.428;2022-08-25T05:06:27;98194.72;;;17.36
61977;BMP280;45905;50.570;10.428;2022-08-25T05:08:56;98200.00;;;17.35
61977;BMP280;45905;50.570;10.428;2022-08-25T05:11:25;98193.31;;;17.34
61977;BMP280;45905;50.570;10.428;2022-08-25T05:13:55;98195.28;;;17.32
61977;BMP280;45905;50.570;10.428;2022-08-25T05:16:25;98197.06;;;17.31
61977;BMP280;45905;50.570;10.428;2022-08-25T05:18:53;98186.63;;;17.33
61977;BMP280;45905;50.570;10.428;2022-08-25T05:21:25;98182.88;;;17.35
61977;BMP280;45905;50.570;10.428;2022-08-25T05:23:58;98176.00;;;17.36
61977;BMP280;45905;50.570;10.428;2022-08-25T05:26:29;98177.56;;;17.37
61977;BMP280;45905;50.570;10.428;2022-08-25T05:28:59;98176.41;;;17.39
61977;BMP280;45905;50.570;10.428;2022-08-25T05:31:27;98172.09;;;17.39
61977;BMP280;45905;50.570;10.428;2022-08-25T05:33:55;98173.06;;;17.38
61977;BMP280;45905;50.570;10.428;2022-08-25T05:36:25;98177.56;;;17.37
61977;BMP280;45905;50.570;10.428;2022-08-25T05:38:53;98174.03;;;17.38
61977;BMP280;45905;50.570;10.428;2022-08-25T05:41:25;98180.75;;;17.38
61977;BMP280;45905;50.570;10.428;2022-08-25T05:43:53;98181.34;;;17.40
61977;BMP280;45905;50.570;10.428;2022-08-25T05:46:21;98181.13;;;17.36
61977;BMP280;45905;50.570;10.428;2022-08-25T05:48:49;98171.84;;;17.35
61977;BMP280;45905;50.570;10.428;2022-08-25T05:51:17;98171.28;;;17.33
61977;BMP280;45905;50.570;10.428;2022-08-25T05:53:48;98177.19;;;17.33
61977;BMP280;45905;50.570;10.428;2022-08-25T05:56:17;98174.41;;;17.35
61977;BMP280;45905;50.570;10.428;2022-08-25T05:58:45;98179.94;;;17.38
61977;BMP280;45905;50.570;10.428;2022-08-25T06:01:24;98179.38;;;17.42
61977;BMP280;45905;50.570;10.428;2022-08-25T06:04:21;98183.94;;;17.47
61977;BMP280;45905;50.570;10.428;2022-08-25T06:06:48;98183.75;;;17.48
61977;BMP280;45905;50.570;10.428;2022-08-25T06:09:20;98181.19;;;17.48
61977;BMP280;45905;50.570;10.428;2022-08-25T06:11:48;98178.44;;;17.50
61977;BMP280;45905;50.570;10.428;2022-08-25T06:14:22;98175.66;;;17.51
61977;BMP280;45905;50.570;10.428;2022-08-25T06:16:50;98177.25;;;17.52
61977;BMP280;45905;50.570;10.428;2022-08-25T06:19:17;98178.03;;;17.53
61977;BMP280;45905;50.570;10.428;2022-08-25T06:21:45;98172.13;;;17.52
61977;BMP280;45905;50.570;10.428;2022-08-25T06:24:12;98181.19;;;17.55
61977;BMP280;45905;50.570;10.428;2022-08-25T06:26:42;98172.16;;;17.58
61977;BMP280;45905;50.570;10.428;2022-08-25T06:29:10;98177.69;;;17.62
61977;BMP280;45905;50.570;10.428;2022-08-25T06:31:40;98169.44;;;17.66
61977;BMP280;45905;50.570;10.428;2022-08-25T06:34:10;98172.38;;;17.70
61977;BMP280;45905;50.570;10.428;2022-08-25T06:36:37;98167.69;;;17.73
61977;BMP280;45905;50.570;10.428;2022-08-25T06:39:06;98166.28;;;17.77
61977;BMP280;45905;50.570;10.428;2022-08-25T06:41:35;98169.47;;;17.79
61977;BMP280;45905;50.570;10.428;2022-08-25T06:44:04;98168.28;;;17.81
61977;BMP280;45905;50.570;10.428;2022-08-25T06:46:32;98161.00;;;17.85
61977;BMP280;45905;50.570;10.428;2022-08-25T06:49:04;98163.19;;;17.88
61977;BMP280;45905;50.570;10.428;2022-08-25T06:51:32;98161.25;;;17.90
61977;BMP280;45905;50.570;10.428;2022-08-25T06:54:04;98162.81;;;17.91
61977;BMP280;45905;50.570;10.428;2022-08-25T06:56:33;98164.78;;;17.95
61977;BMP280;45905;50.570;10.428;2022-08-25T06:59:03;98163.44;;;17.99
61977;BMP280;45905;50.570;10.428;2022-08-25T07:01:31;98154.16;;;18.04
61977;BMP280;45905;50.570;10.428;2022-08-25T07:04:03;98148.47;;;18.09
61977;BMP280;45905;50.570;10.428;2022-08-25T07:06:39;98154.75;;;18.13
61977;BMP280;45905;50.570;10.428;2022-08-25T07:09:08;98150.66;;;18.18
61977;BMP280;45905;50.570;10.428;2022-08-25T07:11:36;98146.31;;;18.25
61977;BMP280;45905;50.570;10.428;2022-08-25T07:14:05;98144.34;;;18.33
61977;BMP280;45905;50.570;10.428;2022-08-25T07:16:34;98139.00;;;18.41
61977;BMP280;45905;50.570;10.428;2022-08-25T07:19:04;98136.44;;;18.47
61977;BMP280;45905;50.570;10.428;2022-08-25T07:21:37;98138.03;;;18.54
61977;BMP280;45905;50.570;10.428;2022-08-25T07:24:09;98132.09;;;18.60
61977;BMP280;45905;50.570;10.428;2022-08-25T07:26:40;98131.28;;;18.66
61977;BMP280;45905;50.570;10.428;2022-08-25T07:29:24;98125.78;;;18.75
61977;BMP280;45905;50.570;10.428;2022-08-25T07:32:00;98116.09;;;18.84
61977;BMP280;45905;50.570;10.428;2022-08-25T07:34:28;98125.16;;;18.92
61977;BMP280;45905;50.570;10.428;2022-08-25T07:37:20;98122.38;;;19.00
61977;BMP280;45905;50.570;10.428;2022-08-25T07:40:11;98126.53;;;19.08
61977;BMP280;45905;50.570;10.428;2022-08-25T07:42:40;98113.47;;;19.15
61977;BMP280;45905;50.570;10.428;2022-08-25T07:45:10;98114.38;;;19.27
61977;BMP280;45905;50.570;10.428;2022-08-25T07:47:38;98109.81;;;19.35
61977;BMP280;45905;50.570;10.428;2022-08-25T07:50:08;98102.28;;;19.40
61977;BMP280;45905;50.570;10.428;2022-08-25T07:52:36;98096.31;;;19.46
61977;BMP280;45905;50.570;10.428;2022-08-25T07:55:06;98107.94;;;19.55
61977;BMP280;45905;50.570;10.428;2022-08-25T07:57:39;98109.69;;;19.67
61977;BMP280;45905;50.570;10.428;2022-08-25T08:00:09;98103.31;;;19.76
61977;BMP280;45905;50.570;10.428;2022-08-25T08:02:42;98100.50;;;19.84
61977;BMP280;45905;50.570;10.428;2022-08-25T08:05:12;98095.50;;;19.95
61977;BMP280;45905;50.570;10.428;2022-08-25T08:07:40;98094.78;;;20.06
61977;BMP280;45905;50.570;10.428;2022-08-25T08:10:12;98099.66;;;20.20
61977;BMP280;45905;50.570;10.428;2022-08-25T08:13:00;98097.75;;;20.39
61977;BMP280;45905;50.570;10.428;2022-08-25T08:15:28;98102.34;;;20.55
61977;BMP280;45905;50.570;10.428;2022-08-25T08:17:57;98101.41;;;20.67
61977;BMP280;45905;50.570;10.428;2022-08-25T08:20:25;98098.72;;;20.80
61977;BMP280;45905;50.570;10.428;2022-08-25T08:22:54;98099.16;;;20.94
61977;BMP280;45905;50.570;10.428;2022-08-25T08:25:22;98100.94;;;21.11
61977;BMP280;45905;50.570;10.428;2022-08-25T08:27:54;98089.75;;;21.23
61977;BMP280;45905;50.570;10.428;2022-08-25T08:30:23;98089.25;;;21.33
61977;BMP280;45905;50.570;10.428;2022-08-25T08:32:53;98089.16;;;21.39
61977;BMP280;45905;50.570;10.428;2022-08-25T08:35:41;98081.13;;;21.47
61977;BMP280;45905;50.570;10.428;2022-08-25T08:38:09;98086.19;;;21.53
61977;BMP280;45905;50.570;10.428;2022-08-25T08:44:10;98081.34;;;21.74
61977;BMP280;45905;50.570;10.428;2022-08-25T08:55:51;98077.34;;;22.52
61977;BMP280;45905;50.570;10.428;2022-08-25T08:58:31;98075.00;;;22.61
61977;BMP280;45905;50.570;10.428;2022-08-25T09:01:02;98080.19;;;22.73
61977;BMP280;45905;50.570;10.428;2022-08-25T09:03:42;98073.22;;;22.84
61977;BMP280;45905;50.570;10.428;2022-08-25T09:06:27;98076.19;;;23.04
61977;BMP280;45905;50.570;10.428;2022-08-25T09:09:01;98075.94;;;23.16
61977;BMP280;45905;50.570;10.428;2022-08-25T09:12:08;98075.50;;;23.19
61977;BMP280;45905;50.570;10.428;2022-08-25T09:23:31;98073.28;;;23.50
61977;BMP280;45905;50.570;10.428;2022-08-25T09:26:34;98070.72;;;23.66
61977;BMP280;45905;50.570;10.428;2022-08-25T09:29:13;98060.00;;;23.74
61977;BMP280;45905;50.570;10.428;2022-08-25T09:31:44;98058.06;;;23.81
61977;BMP280;45905;50.570;10.428;2022-08-25T09:34:21;98056.13;;;23.88
61977;BMP280;45905;50.570;10.428;2022-08-25T09:36:50;98057.75;;;23.93
61977;BMP280;45905;50.570;10.428;2022-08-25T09:39:20;98044.41;;;23.96
61977;BMP280;45905;50.570;10.428;2022-08-25T09:41:56;98038.38;;;24.07
61977;BMP280;45905;50.570;10.428;2022-08-25T09:47:04;98043.44;;;24.34
61977;BMP280;45905;50.570;10.428;2022-08-25T09:49:44;98036.38;;;24.46
61977;BMP280;45905;50.570;10.428;2022-08-25T09:57:52;98027.00;;;24.77
61977;BMP280;45905;50.570;10.428;2022-08-25T10:00:33;98026.94;;;24.93
61977;BMP280;45905;50.570;10.428;2022-08-25T10:03:18;98012.94;;;25.15
61977;BMP280;45905;50.570;10.428;2022-08-25T10:06:08;98006.91;;;25.31
61977;BMP280;45905;50.570;10.428;2022-08-25T10:08:52;98004.97;;;25.43
61977;BMP280;45905;50.570;10.428;2022-08-25T10:11:48;97995.00;;;25.56
61977;BMP280;45905;50.570;10.428;2022-08-25T10:16:51;97988.13;;;25.71
61977;BMP280;45905;50.570;10.428;2022-08-25T10:19:28;97984.06;;;25.84
61977;BMP280;45905;50.570;10.428;2022-08-25T10:22:25;97972.84;;;26.05
61977;BMP280;45905;50.570;10.428;2022-08-25T10:24:59;97962.31;;;26.21
61977;BMP280;45905;50.570;10.428;2022-08-25T10:33:11;97954.91;;;26.44
61977;BMP280;45905;50.570;10.428;2022-08-25T10:35:58;97946.94;;;26.55
61977;BMP280;45905;50.570;10.428;2022-08-25T10:38:44;97943.63;;;26.69
61977;BMP280;45905;50.570;10.428;2022-08-25T10:50:32;97917.84;;;27.38
61977;BMP280;45905;50.570;10.428;2022-08-25T11:04:32;97888.72;;;27.75
61977;BMP280;45905;50.570;10.428;2022-08-25T11:07:40;97889.50;;;27.80
61977;BMP280;45905;50.570;10.428;2022-08-25T11:10:26;97894.13;;;27.93
61977;BMP280;45905;50.570;10.428;2022-08-25T11:12:57;97886.31;;;28.02
61977;BMP280;45905;50.570;10.428;2022-08-25T11:15:35;97884.22;;;28.14
61977;BMP280;45905;50.570;10.428;2022-08-25T11:18:16;97887.59;;;28.24
61977;BMP280;45905;50.570;10.428;2022-08-25T11:21:11;97883.66;;;28.32
61977;BMP280;45905;50.570;10.428;2022-08-25T11:23:57;97893.53;;;28.39
61977;BMP280;45905;50.570;10.428;2022-08-25T11:26:34;97882.59;;;28.42
61977;BMP280;45905;50.570;10.428;2022-08-25T11:29:17;97885.41;;;28.51
61977;BMP280;45905;50.570;10.428;2022-08-25T11:31:51;97883.56;;;28.61
61977;BMP280;45905;50.570;10.428;2022-08-25T11:34:21;97874.91;;;28.70
61977;BMP280;45905;50.570;10.428;2022-08-25T11:36:57;97876.41;;;28.81
61977;BMP280;45905;50.570;10.428;2022-08-25T11:48:05;97876.72;;;29.17
61977;BMP280;45905;50.570;10.428;2022-08-25T11:50:55;97870.19;;;29.19
61977;BMP280;45905;50.570;10.428;2022-08-25T11:53:37;97866.28;;;29.17
61977;BMP280;45905;50.570;10.428;2022-08-25T11:56:32;97867.84;;;29.18
61977;BMP280;45905;50.570;10.428;2022-08-25T11:59:01;97863.66;;;29.22
61977;BMP280;45905;50.570;10.428;2022-08-25T12:04:40;97864.38;;;29.27
61977;BMP280;45905;50.570;10.428;2022-08-25T12:07:23;97864.38;;;29.32
61977;BMP280;45905;50.570;10.428;2022-08-25T12:12:55;97841.03;;;29.50
61977;BMP280;45905;50.570;10.428;2022-08-25T12:23:42;97837.94;;;29.71
61977;BMP280;45905;50.570;10.428;2022-08-25T12:26:58;97837.59;;;29.77
61977;BMP280;45905;50.570;10.428;2022-08-25T12:29:39;97829.31;;;29.98
61977;BMP280;45905;50.570;10.428;2022-08-25T12:38:13;97823.09;;;30.17
61977;BMP280;45905;50.570;10.428;2022-08-25T12:45:49;97819.16;;;30.38
61977;BMP280;45905;50.570;10.428;2022-08-25T12:51:06;97809.91;;;30.68
61977;BMP280;45905;50.570;10.428;2022-08-25T12:53:39;97807.84;;;30.83
61977;BMP280;45905;50.570;10.428;2022-08-25T12:56:40;97806.81;;;31.02
61977;BMP280;45905;50.570;10.428;2022-08-25T12:59:22;97811.31;;;31.15
61977;BMP280;45905;50.570;10.428;2022-08-25T13:02:35;97796.03;;;31.22
61977;BMP280;45905;50.570;10.428;2022-08-25T13:08:54;97795.41;;;31.42
61977;BMP280;45905;50.570;10.428;2022-08-25T13:11:32;97788.63;;;31.42
61977;BMP280;45905;50.570;10.428;2022-08-25T13:14:23;97787.84;;;31.41
61977;BMP280;45905;50.570;10.428;2022-08-25T13:16:58;97788.84;;;31.45
61977;BMP280;45905;50.570;10.428;2022-08-25T13:19:27;97782.47;;;31.51
61977;BMP280;45905;50.570;10.428;2022-08-25T13:22:13;97782.25;;;31.61
61977;BMP280;45905;50.570;10.428;2022-08-25T13:24:45;97779.28;;;31.67
61977;BMP280;45905;50.570;10.428;2022-08-25T13:27:27;97769.88;;;31.79
61977;BMP280;45905;50.570;10.428;2022-08-25T13:29:58;97773.06;;;31.89
61977;BMP280;45905;50.570;10.428;2022-08-25T13:32:35;97768.94;;;32.01
61977;BMP280;45905;50.570;10.428;2022-08-25T13:37:47;97770.31;;;32.12
61977;BMP280;45905;50.570;10.428;2022-08-25T13:40:29;97769.69;;;32.15
61977;BMP280;45905;50.570;10.428;2022-08-25T13:43:09;97760.69;;;32.21
61977;BMP280;45905;50.570;10.428;2022-08-25T13:45:45;97755.91;;;32.23
61977;BMP280;45905;50.570;10.428;2022-08-25T13:48:39;97750.41;;;32.11
61977;BMP280;45905;50.570;10.428;2022-08-25T13:51:22;97754.47;;;32.17
61977;BMP280;45905;50.570;10.428;2022-08-25T13:54:04;97750.66;;;32.23
61977;BMP280;45905;50.570;10.428;2022-08-25T13:56:36;97750.19;;;32.21
61977;BMP280;45905;50.570;10.428;2022-08-25T13:59:24;97745.53;;;32.18
61977;BMP280;45905;50.570;10.428;2022-08-25T14:01:54;97742.00;;;32.22
61977;BMP280;45905;50.570;10.428;2022-08-25T14:12:44;97727.22;;;32.39
61977;BMP280;45905;50.570;10.428;2022-08-25T14:18:26;97733.03;;;32.50
61977;BMP280;45905;50.570;10.428;2022-08-25T14:20:56;97722.69;;;32.66
61977;BMP280;45905;50.570;10.428;2022-08-25T14:23:27;97717.41;;;32.79
61977;BMP280;45905;50.570;10.428;2022-08-25T14:25:57;97713.84;;;32.97
61977;BMP280;45905;50.570;10.428;2022-08-25T14:28:27;97718.59;;;33.17
61977;BMP280;45905;50.570;10.428;2022-08-25T14:31:07;97709.06;;;33.29
61977;BMP280;45905;50.570;10.428;2022-08-25T14:36:16;97705.88;;;33.10
61977;BMP280;45905;50.570;10.428;2022-08-25T14:38:47;97711.53;;;32.96
61977;BMP280;45905;50.570;10.428;2022-08-25T14:41:22;97700.66;;;32.89
61977;BMP280;45905;50.570;10.428;2022-08-25T14:43:49;97697.34;;;32.83
61977;BMP280;45905;50.570;10.428;2022-08-25T14:46:27;97700.94;;;32.66
61977;BMP280;45905;50.570;10.428;2022-08-25T14:48:58;97701.53;;;32.63
61977;BMP280;45905;50.570;10.428;2022-08-25T14:51:29;97696.53;;;32.53
61977;BMP280;45905;50.570;10.428;2022-08-25T14:54:09;97688.25;;;32.25
61977;BMP280;45905;50.570;10.428;2022-08-25T14:56:37;97691.84;;;32.16
61977;BMP280;45905;50.570;10.428;2022-08-25T14:59:08;97691.19;;;32.10
61977;BMP280;45905;50.570;10.428;2022-08-25T15:01:36;97696.28;;;31.94
61977;BMP280;45905;50.570;10.428;2022-08-25T15:04:20;97691.03;;;31.94
61977;BMP280;45905;50.570;10.428;2022-08-25T15:06:54;97684.50;;;32.04
61977;BMP280;45905;50.570;10.428;2022-08-25T15:09:24;97676.81;;;32.08
61977;BMP280;45905;50.570;10.428;2022-08-25T15:11:59;97671.59;;;32.08
61977;BMP280;45905;50.570;10.428;2022-08-25T15:14:26;97674.41;;;32.11
61977;BMP280;45905;50.570;10.428;2022-08-25T15:16:56;97664.38;;;32.13
61977;BMP280;45905;50.570;10.428;2022-08-25T15:19:25;97676.91;;;32.16
61977;BMP280;45905;50.570;10.428;2022-08-25T15:21:53;97665.91;;;32.27
61977;BMP280;45905;50.570;10.428;2022-08-25T15:24:26;97664.88;;;32.50
61977;BMP280;45905;50.570;10.428;2022-08-25T15:26:58;97651.59;;;32.68
61977;BMP280;45905;50.570;10.428;2022-08-25T15:29:28;97646.63;;;32.88
61977;BMP280;45905;50.570;10.428;2022-08-25T15:31:58;97655.97;;;33.02
61977;BMP280;45905;50.570;10.428;2022-08-25T15:34:27;97658.63;;;33.10
61977;BMP280;45905;50.570;10.428;2022-08-25T15:36:56;97653.44;;;33.18
61977;BMP280;45905;50.570;10.428;2022-08-25T15:39:25;97647.25;;;33.15
61977;BMP280;45905;50.570;10.428;2022-08-25T15:41:52;97643.94;;;33.01
61977;BMP280;45905;50.570;10.428;2022-08-25T15:44:20;97650.97;;;32.92
61977;BMP280;45905;50.570;10.428;2022-08-25T15:46:52;97651.47;;;32.94
61977;BMP280;45905;50.570;10.428;2022-08-25T15:49:22;97658.84;;;32.92
61977;BMP280;45905;50.570;10.428;2022-08-25T15:51:54;97649.31;;;32.96
61977;BMP280;45905;50.570;10.428;2022-08-25T15:54:22;97642.81;;;32.94
61977;BMP280;45905;50.570;10.428;2022-08-25T15:56:54;97658.47;;;32.85
61977;BMP280;45905;50.570;10.428;2022-08-25T15:59:23;97652.44;;;32.98
61977;BMP280;45905;50.570;10.428;2022-08-25T16:01:51;97640.00;;;32.90
61977;BMP280;45905;50.570;10.428;2022-08-25T16:04:26;97651.03;;;33.00
61977;BMP280;45905;50.570;10.428;2022-08-25T16:06:54;97645.69;;;33.14
61977;BMP280;45905;50.570;10.428;2022-08-25T16:09:21;97647.00;;;33.24
61977;BMP280;45905;50.570;10.428;2022-08-25T16:11:50;97643.44;;;33.29
61977;BMP280;45905;50.570;10.428;2022-08-25T16:14:25;97647.94;;;33.36
61977;BMP280;45905;50.570;10.428;2022-08-25T16:16:54;97642.94;;;33.48
61977;BMP280;45905;50.570;10.428;2022-08-25T16:19:27;97644.66;;;33.53
61977;BMP280;45905;50.570;10.428;2022-08-25T16:21:55;97647.13;;;33.57
61977;BMP280;45905;50.570;10.428;2022-08-25T16:24:23;97643.41;;;33.50